createdAt,value
2023-01-29T00:02:19.223Z,85.10
2023-01-29T00:07:39.743Z,85.25
2023-01-29T00:13:00.468Z,85.01
2023-01-29T00:18:21.624Z,84.81
2023-01-29T00:23:42.434Z,84.77
2023-01-29T00:29:03.029Z,84.60
2023-01-29T00:34:23.682Z,84.76
2023-01-29T00:39:48.193Z,85.10
2023-01-29T00:45:10.831Z,84.77
2023-01-29T00:50:32.391Z,85.04
2023-01-29T00:55:52.823Z,85.18
2023-01-29T01:01:13.779Z,85.15
2023-01-29T01:06:37.492Z,85.02
2023-01-29T01:11:58.101Z,84.95
2023-01-29T01:17:18.872Z,84.75
2023-01-29T01:22:39.687Z,84.93
2023-01-29T01:28:02.780Z,84.82
2023-01-29T01:33:23.644Z,84.77
2023-01-29T01:38:45.127Z,84.98
2023-01-29T01:44:06.543Z,84.82
2023-01-29T01:49:27.496Z,84.84
2023-01-29T01:54:49.358Z,84.90
2023-01-29T02:00:14.374Z,84.75
2023-01-29T02:05:56.040Z,84.86
2023-01-29T02:11:17.987Z,85.03
2023-01-29T02:16:39.012Z,84.91
2023-01-29T02:22:28.252Z,84.96
2023-01-29T02:28:12.176Z,85.13
2023-01-29T02:34:09.938Z,85.34
2023-01-29T02:40:15.990Z,85.38
2023-01-29T02:46:09.190Z,85.17
2023-01-29T02:51:49.719Z,84.75
2023-01-29T02:57:18.363Z,84.81
2023-01-29T03:02:48.924Z,84.68
2023-01-29T03:08:15.463Z,84.80
2023-01-29T03:13:49.581Z,84.70
2023-01-29T03:19:17.238Z,84.82
2023-01-29T03:25:09.662Z,84.98
2023-01-29T03:30:55.413Z,85.05
2023-01-29T03:36:45.279Z,85.13
2023-01-29T03:42:36.737Z,85.27
2023-01-29T03:48:12.250Z,85.01
2023-01-29T03:53:44.322Z,85.12
2023-01-29T03:59:46.543Z,85.16
2023-01-29T04:05:33.417Z,85.30
2023-01-29T04:11:11.879Z,85.28
2023-01-29T04:16:40.853Z,85.32
2023-01-29T04:22:14.020Z,85.55
2023-01-29T04:28:01.655Z,85.51
2023-01-29T04:33:51.218Z,85.47
2023-01-29T04:39:22.900Z,85.28
2023-01-29T04:44:54.696Z,85.27
2023-01-29T04:50:22.322Z,85.41
2023-01-29T04:56:08.644Z,85.34
2023-01-29T05:01:33.152Z,85.22
2023-01-29T05:06:55.234Z,84.97
2023-01-29T05:12:17.575Z,85.63
2023-01-29T05:17:38.252Z,85.55
2023-01-29T05:22:59.259Z,85.68
2023-01-29T05:36:16.600Z,85.75
2023-01-29T05:41:37.507Z,85.79
2023-01-29T05:46:58.045Z,85.89
2023-01-29T05:52:18.507Z,85.72
2023-01-29T05:57:40.601Z,85.87
2023-01-29T06:03:01.708Z,85.80
2023-01-29T06:08:22.309Z,85.73
2023-01-29T06:13:43.231Z,85.72
2023-01-29T06:19:03.717Z,85.66
2023-01-29T06:24:24.518Z,85.74
2023-01-29T06:29:45.165Z,85.65
2023-01-29T06:35:06.277Z,85.80
2023-01-29T06:40:26.522Z,85.89
2023-01-29T06:45:57.481Z,85.84
2023-01-29T06:51:18.442Z,86.08
2023-01-29T06:56:39.284Z,85.81
2023-01-29T07:02:00.291Z,85.91
2023-01-29T07:07:20.901Z,85.90
2023-01-29T07:12:41.624Z,86.06
2023-01-29T07:18:12.200Z,86.16
2023-01-29T07:23:34.503Z,85.92
2023-01-29T07:28:54.836Z,85.90
2023-01-29T07:34:15.496Z,85.71
2023-01-29T07:39:36.265Z,85.67
2023-01-29T07:44:56.982Z,85.62
2023-01-29T07:50:17.787Z,85.40
2023-01-29T07:55:38.459Z,85.40
2023-01-29T08:00:59.273Z,85.50
2023-01-29T08:06:19.848Z,85.41
2023-01-29T08:11:40.381Z,85.20
2023-01-29T08:17:00.808Z,85.15
2023-01-29T08:22:21.311Z,84.79
2023-01-29T08:27:42.422Z,84.70
2023-01-29T08:33:04.159Z,84.63
2023-01-29T08:38:24.830Z,84.77
2023-01-29T08:43:46.611Z,84.62
2023-01-29T08:49:08.317Z,84.45
2023-01-29T08:54:28.770Z,84.36
2023-01-29T08:59:49.120Z,84.26
2023-01-29T09:05:10.447Z,83.96
2023-01-29T09:10:31.288Z,83.77
2023-01-29T09:15:52.046Z,83.64
2023-01-29T09:21:13.081Z,83.25
2023-01-29T09:26:33.702Z,83.00
2023-01-29T09:31:54.359Z,82.54
2023-01-29T09:37:17.525Z,82.27
2023-01-29T09:42:48.472Z,82.08
2023-01-29T09:48:11.813Z,81.86
2023-01-29T09:53:39.264Z,81.64
2023-01-29T09:59:01.770Z,81.93
2023-01-29T10:04:50.043Z,81.87
2023-01-29T10:10:36.215Z,81.68
2023-01-29T10:16:05.216Z,81.72
2023-01-29T10:22:12.913Z,81.95
2023-01-29T10:27:38.507Z,81.53
2023-01-29T10:33:03.001Z,81.67
2023-01-29T10:38:37.334Z,81.89
2023-01-29T10:44:22.706Z,81.70
2023-01-29T10:50:00.505Z,81.67
2023-01-29T10:55:35.798Z,81.86
2023-01-29T11:00:56.471Z,81.81
2023-01-29T11:06:24.059Z,81.76
2023-01-29T11:11:50.011Z,81.47
2023-01-29T11:17:19.044Z,81.09
2023-01-29T11:22:53.943Z,80.97
2023-01-29T11:28:34.306Z,80.88
2023-01-29T11:34:25.241Z,80.87
2023-01-29T11:39:50.594Z,80.94
2023-01-29T11:45:20.062Z,81.10
2023-01-29T11:50:41.021Z,81.21
2023-01-29T11:56:05.925Z,81.09
2023-01-29T12:01:33.504Z,80.99
2023-01-29T12:06:54.648Z,81.13
2023-01-29T12:12:29.771Z,81.45
2023-01-29T12:17:58.993Z,81.39
2023-01-29T12:23:39.930Z,81.04
2023-01-29T12:29:19.650Z,81.17
2023-01-29T12:34:59.157Z,81.16
2023-01-29T12:40:25.078Z,80.96
2023-01-29T12:45:52.167Z,80.90
2023-01-29T12:51:20.257Z,80.33
2023-01-29T12:56:47.378Z,80.27
2023-01-29T13:02:20.072Z,80.13
2023-01-29T13:07:47.561Z,79.66
2023-01-29T13:13:32.980Z,79.57
2023-01-29T13:19:05.223Z,78.53
2023-01-29T13:24:31.780Z,79.05
2023-01-29T13:29:54.667Z,79.12
2023-01-29T13:35:15.840Z,79.31
2023-01-29T13:40:36.779Z,79.04
2023-01-29T13:45:57.488Z,79.12
2023-01-29T13:51:28.333Z,79.18
2023-01-29T13:56:55.128Z,79.10
2023-01-29T14:02:24.914Z,79.17
2023-01-29T14:07:45.332Z,79.45
2023-01-29T14:13:18.164Z,79.41
2023-01-29T14:18:48.417Z,79.21
2023-01-29T14:24:17.345Z,79.00
2023-01-29T14:29:41.786Z,79.39
2023-01-29T14:35:05.132Z,79.70
2023-01-29T14:40:29.626Z,79.77
2023-01-29T14:45:51.500Z,80.01
2023-01-29T14:51:17.691Z,80.30
2023-01-29T14:56:50.356Z,80.06
2023-01-29T15:02:20.016Z,80.23
2023-01-29T15:07:51.438Z,80.28
2023-01-29T15:13:22.185Z,80.31
2023-01-29T15:18:43.238Z,80.40
2023-01-29T15:24:13.516Z,80.43
2023-01-29T15:29:35.223Z,80.57
2023-01-29T15:34:58.122Z,80.80
2023-01-29T15:40:19.388Z,80.45
2023-01-29T15:45:40.707Z,80.62
2023-01-29T15:51:04.816Z,80.62
2023-01-29T15:56:29.621Z,80.61
2023-01-29T16:01:50.596Z,80.87
2023-01-29T16:07:11.798Z,80.97
2023-01-29T16:12:33.630Z,80.87
2023-01-29T16:17:54.517Z,80.82
2023-01-29T16:23:28.110Z,80.99
2023-01-29T16:28:49.020Z,80.80
2023-01-29T16:34:20.136Z,80.90
2023-01-29T16:39:46.506Z,80.95
2023-01-29T16:45:28.305Z,81.06
2023-01-29T16:50:54.950Z,81.22
2023-01-29T16:56:17.733Z,80.95
2023-01-29T17:01:38.709Z,81.03
2023-01-29T17:07:01.610Z,80.86
2023-01-29T17:12:25.685Z,80.98
2023-01-29T17:17:49.047Z,80.95
2023-01-29T17:23:09.847Z,80.97
2023-01-29T17:28:30.720Z,80.95
2023-01-29T17:33:51.341Z,81.00
2023-01-29T17:39:21.125Z,81.00
2023-01-29T17:44:45.292Z,81.04
2023-01-29T17:50:20.392Z,81.02
2023-01-29T17:55:40.811Z,80.98
2023-01-29T18:01:01.853Z,80.97
2023-01-29T18:06:28.320Z,80.91
2023-01-29T18:11:49.902Z,81.12
2023-01-29T18:17:10.728Z,80.93
2023-01-29T18:22:31.064Z,81.05
2023-01-29T18:27:52.014Z,81.09
2023-01-29T18:33:13.283Z,81.06
2023-01-29T18:38:33.802Z,80.94
2023-01-29T18:43:54.649Z,81.07
2023-01-29T18:49:15.021Z,80.98
2023-01-29T18:54:36.006Z,81.09
2023-01-29T18:59:56.754Z,81.05
2023-01-29T19:05:21.425Z,80.91
2023-01-29T19:10:42.614Z,81.06
2023-01-29T19:16:07.417Z,81.21
2023-01-29T19:21:30.438Z,81.27
2023-01-29T19:26:51.245Z,81.27
2023-01-29T19:32:11.920Z,81.25
2023-01-29T19:37:32.579Z,81.31
2023-01-29T19:42:55.618Z,81.28
2023-01-29T19:48:20.312Z,81.30
2023-01-29T19:53:44.941Z,81.17
2023-01-29T19:59:07.280Z,81.33
2023-01-29T20:04:29.208Z,81.44
2023-01-29T20:09:51.920Z,81.51
2023-01-29T20:15:14.554Z,81.60
2023-01-29T20:20:39.316Z,81.82
2023-01-29T20:26:01.128Z,81.76
2023-01-29T20:31:21.913Z,81.80
2023-01-29T20:36:42.491Z,81.83
2023-01-29T20:42:03.134Z,82.05
2023-01-29T20:47:23.934Z,81.85
2023-01-29T20:52:45.270Z,82.15
2023-01-29T20:58:06.837Z,82.30
2023-01-29T21:03:27.193Z,82.52
2023-01-29T21:08:47.759Z,82.60
2023-01-29T21:14:08.362Z,82.61
2023-01-29T21:19:30.185Z,82.64
2023-01-29T21:24:50.721Z,82.72
2023-01-29T21:30:11.873Z,82.99
2023-01-29T21:35:32.898Z,83.34
2023-01-29T21:40:59.249Z,83.45
2023-01-29T21:46:19.675Z,83.71
2023-01-29T21:51:41.498Z,83.67
2023-01-29T21:57:07.435Z,83.76
2023-01-29T22:02:30.844Z,84.09
2023-01-29T22:07:51.847Z,84.06
2023-01-29T22:13:12.775Z,84.01
2023-01-29T22:18:34.095Z,83.95
2023-01-29T22:23:54.367Z,84.20
2023-01-29T22:29:17.035Z,84.39
2023-01-29T22:34:37.661Z,84.32
2023-01-29T22:39:58.460Z,84.57
2023-01-29T22:45:19.211Z,84.73
2023-01-29T22:50:40.091Z,85.13
2023-01-29T22:56:00.874Z,85.08
2023-01-29T23:01:24.168Z,85.45
2023-01-29T23:06:44.628Z,85.65
2023-01-29T23:12:05.658Z,85.60
2023-01-29T23:17:26.178Z,85.98
2023-01-29T23:22:49.753Z,86.19
2023-01-29T23:28:10.787Z,86.40
2023-01-29T23:33:31.519Z,86.77
2023-01-29T23:38:52.403Z,86.86
2023-01-29T23:44:12.966Z,87.11
2023-01-29T23:49:33.267Z,87.20
2023-01-29T23:54:53.861Z,87.59
